createdAt,value
2019-05-07T00:01:23.484Z,75.97
2019-05-07T00:06:29.358Z,76.17
2019-05-07T00:11:35.663Z,76.79
2019-05-07T00:16:42.444Z,77.03
2019-05-07T00:21:49.212Z,76.82
2019-05-07T00:26:55.355Z,76.85
2019-05-07T00:32:02.956Z,77.26
2019-05-07T00:37:18.475Z,77.50
2019-05-07T00:42:32.717Z,77.74
2019-05-07T00:47:38.350Z,78.06
2019-05-07T00:52:44.999Z,78.51
2019-05-07T00:57:52.732Z,78.94
2019-05-07T01:02:59.975Z,79.39
2019-05-07T01:08:05.595Z,80.55
2019-05-07T01:13:12.595Z,81.55
2019-05-07T01:18:18.796Z,82.35
2019-05-07T01:23:24.381Z,82.52
2019-05-07T01:28:29.895Z,82.59
2019-05-07T01:33:42.368Z,83.17
2019-05-07T01:38:49.046Z,83.57
2019-05-07T01:43:54.596Z,83.98
2019-05-07T01:49:02.889Z,84.60
2019-05-07T01:54:07.670Z,84.58
2019-05-07T01:59:13.201Z,84.68
2019-05-07T02:04:26.126Z,85.12
2019-05-07T02:09:38.694Z,85.54
2019-05-07T02:14:44.245Z,85.92
2019-05-07T02:19:49.913Z,86.56
2019-05-07T02:24:55.835Z,86.91
2019-05-07T02:30:04.130Z,87.48
2019-05-07T02:35:09.262Z,87.49
2019-05-07T02:40:22.856Z,87.35
2019-05-07T02:45:36.996Z,87.87
2019-05-07T02:50:53.106Z,88.35
2019-05-07T02:55:58.399Z,88.75
2019-05-07T03:01:05.000Z,88.57
2019-05-07T03:06:13.546Z,88.06
2019-05-07T03:11:18.887Z,87.67
2019-05-07T03:16:38.783Z,86.97
2019-05-07T03:21:53.834Z,86.35
2019-05-07T03:26:58.139Z,85.62
2019-05-07T03:32:16.035Z,85.47
2019-05-07T03:37:23.369Z,85.77
2019-05-07T03:42:33.477Z,86.19
2019-05-07T03:47:43.861Z,86.63
2019-05-07T03:52:49.303Z,86.59
2019-05-07T03:57:54.758Z,86.56
2019-05-07T04:03:03.584Z,86.22
2019-05-07T04:08:08.638Z,84.50
2019-05-07T04:13:14.916Z,83.81
2019-05-07T04:18:23.311Z,83.17
2019-05-07T04:23:27.726Z,82.54
2019-05-07T04:28:36.884Z,82.35
2019-05-07T04:33:43.928Z,81.52
2019-05-07T04:38:52.909Z,81.76
2019-05-07T04:43:57.563Z,82.32
2019-05-07T04:49:03.902Z,84.11
2019-05-07T04:54:12.894Z,85.46
2019-05-07T04:59:16.830Z,86.28
2019-05-07T05:04:30.310Z,86.44
2019-05-07T05:09:32.690Z,86.83
2019-05-07T05:14:37.140Z,87.14
2019-05-07T05:19:43.864Z,87.27
2019-05-07T05:25:08.678Z,87.07
2019-05-07T05:30:18.922Z,86.87
2019-05-07T05:35:24.421Z,87.43
2019-05-07T05:40:31.978Z,87.92
2019-05-07T05:45:39.572Z,88.81
2019-05-07T05:50:53.750Z,88.90
2019-05-07T05:56:02.371Z,89.05
2019-05-07T06:01:28.561Z,89.23
2019-05-07T06:06:39.688Z,89.53
2019-05-07T06:12:04.126Z,89.81
2019-05-07T06:17:22.391Z,89.97
2019-05-07T06:22:36.893Z,89.83
2019-05-07T06:27:42.424Z,89.35
2019-05-07T06:32:47.941Z,89.15
2019-05-07T06:37:53.729Z,88.30
2019-05-07T06:43:07.172Z,87.62
2019-05-07T06:48:12.830Z,86.80
2019-05-07T06:53:18.550Z,85.65
2019-05-07T06:58:26.120Z,85.44
2019-05-07T07:03:44.459Z,85.33
2019-05-07T07:08:57.589Z,85.11
2019-05-07T07:14:03.175Z,86.13
2019-05-07T07:19:09.593Z,85.24
2019-05-07T07:24:15.560Z,85.10
2019-05-07T07:29:22.725Z,84.54
2019-05-07T07:34:33.077Z,84.37
2019-05-07T07:39:38.021Z,83.14
2019-05-07T07:44:43.685Z,82.54
2019-05-07T07:49:49.447Z,82.72
2019-05-07T07:54:55.094Z,82.85
2019-05-07T08:00:11.926Z,82.48
2019-05-07T08:05:17.812Z,82.38
2019-05-07T08:10:23.728Z,82.05
2019-05-07T08:15:29.494Z,81.91
2019-05-07T08:20:35.025Z,81.95
2019-05-07T08:31:19.034Z,81.93
2019-05-07T08:36:24.760Z,80.43
2019-05-07T08:41:31.933Z,79.00
2019-05-07T08:46:48.074Z,77.72
2019-05-07T08:52:03.431Z,77.04
2019-05-07T08:57:09.459Z,78.10
2019-05-07T09:02:15.335Z,78.10
2019-05-07T09:07:21.908Z,78.07
2019-05-07T09:12:27.926Z,77.49
2019-05-07T09:17:33.481Z,78.52
2019-05-07T09:22:39.062Z,78.98
2019-05-07T09:27:47.891Z,79.49
2019-05-07T09:32:57.718Z,78.90
2019-05-07T09:38:03.738Z,79.81
2019-05-07T09:43:11.785Z,79.71
2019-05-07T09:48:18.694Z,80.04
2019-05-07T09:53:24.722Z,79.50
2019-05-07T09:58:36.734Z,79.52
2019-05-07T10:03:37.829Z,80.94
2019-05-07T10:08:43.734Z,81.65
2019-05-07T10:13:56.427Z,81.88
2019-05-07T10:19:02.337Z,82.93
2019-05-07T10:24:08.090Z,81.81
2019-05-07T10:29:13.851Z,80.29
2019-05-07T10:34:19.694Z,78.24
2019-05-07T10:39:26.418Z,77.78
2019-05-07T10:44:38.713Z,77.20
2019-05-07T10:49:48.985Z,76.69
2019-05-07T10:54:59.745Z,77.37
2019-05-07T11:00:03.211Z,77.63
2019-05-07T11:05:09.090Z,78.03
2019-05-07T11:10:17.936Z,79.46
2019-05-07T11:15:24.136Z,77.34
2019-05-07T11:20:31.897Z,78.57
2019-05-07T11:25:37.601Z,77.21
2019-05-07T11:30:43.797Z,77.63
2019-05-07T11:35:49.482Z,79.09
2019-05-07T11:40:55.769Z,78.49
2019-05-07T11:46:22.082Z,79.42
2019-05-07T11:51:36.005Z,79.34
2019-05-07T11:56:42.454Z,78.91
2019-05-07T12:01:52.725Z,76.52
2019-05-07T12:07:02.610Z,76.00
2019-05-07T12:12:08.316Z,75.97
2019-05-07T12:17:13.983Z,77.57
2019-05-07T12:22:38.884Z,76.40
2019-05-07T12:27:44.729Z,78.22
2019-05-07T12:33:03.795Z,77.37
2019-05-07T12:38:09.447Z,77.71
2019-05-07T12:43:15.082Z,78.90
2019-05-07T12:48:21.843Z,75.97
2019-05-07T12:53:42.532Z,78.62
2019-05-07T12:58:48.224Z,76.25
2019-05-07T13:04:02.659Z,69.61
2019-05-07T13:09:09.225Z,70.85
2019-05-07T13:14:14.991Z,74.20
2019-05-07T13:19:22.555Z,77.17
2019-05-07T13:24:28.290Z,79.65
2019-05-07T13:29:34.636Z,77.49
2019-05-07T13:34:43.766Z,78.93
2019-05-07T13:39:54.381Z,80.02
2019-05-07T13:45:07.138Z,81.27
2019-05-07T13:50:13.570Z,75.57
2019-05-07T13:55:21.831Z,73.33
2019-05-07T14:00:33.235Z,71.55
2019-05-07T14:05:39.868Z,71.67
2019-05-07T14:10:45.893Z,73.47
2019-05-07T14:16:00.114Z,73.14
2019-05-07T14:21:07.679Z,75.37
2019-05-07T14:26:13.440Z,73.31
2019-05-07T14:31:19.043Z,75.12
2019-05-07T14:36:32.015Z,75.12
2019-05-07T14:41:37.892Z,74.37
2019-05-07T14:46:50.746Z,76.12
2019-05-07T14:51:53.880Z,77.26
2019-05-07T14:56:58.822Z,77.65
2019-05-07T15:02:04.854Z,77.34
2019-05-07T15:07:12.184Z,78.23
2019-05-07T15:12:17.837Z,78.47
2019-05-07T15:17:32.605Z,79.16
2019-05-07T15:22:49.945Z,79.70
2019-05-07T15:27:56.298Z,80.43
2019-05-07T15:33:02.354Z,81.78
2019-05-07T15:38:08.190Z,83.20
2019-05-07T15:43:13.994Z,82.97
2019-05-07T15:48:21.875Z,83.55
2019-05-07T15:53:33.563Z,83.38
2019-05-07T15:58:39.442Z,83.07
2019-05-07T16:03:46.012Z,82.38
2019-05-07T16:08:55.721Z,82.33
2019-05-07T16:14:12.614Z,83.26
2019-05-07T16:19:27.895Z,85.30
2019-05-07T16:24:33.561Z,86.07
2019-05-07T16:29:39.192Z,87.50
2019-05-07T16:34:44.846Z,90.95
2019-05-07T16:39:52.575Z,92.72
2019-05-07T16:44:57.599Z,93.52
2019-05-07T16:50:04.214Z,94.34
2019-05-07T16:55:12.279Z,95.07
2019-05-07T17:00:27.493Z,95.41
2019-05-07T17:05:33.227Z,95.76
2019-05-07T17:10:38.881Z,95.92
2019-05-07T17:15:52.965Z,96.04
2019-05-07T17:20:59.371Z,96.25
2019-05-07T17:26:08.321Z,96.67
2019-05-07T17:31:13.958Z,97.09
2019-05-07T17:36:19.431Z,97.10
2019-05-07T17:41:27.302Z,97.42
2019-05-07T17:46:46.134Z,97.36
2019-05-07T17:51:49.630Z,97.93
2019-05-07T17:56:55.278Z,98.13
2019-05-07T18:02:09.047Z,98.79
2019-05-07T18:07:15.198Z,99.20
2019-05-07T18:12:22.509Z,99.41
2019-05-07T18:17:35.786Z,99.32
2019-05-07T18:22:52.122Z,99.59
2019-05-07T18:27:57.857Z,100.00
2019-05-07T18:33:12.011Z,100.00
2019-05-07T18:38:17.751Z,100.00
2019-05-07T18:43:23.284Z,100.00
2019-05-07T18:48:29.277Z,100.00
2019-05-07T18:53:34.811Z,100.00
2019-05-07T18:58:42.439Z,100.00
2019-05-07T19:03:48.398Z,100.00
2019-05-07T19:08:56.553Z,100.00
2019-05-07T19:14:03.100Z,100.00
2019-05-07T19:19:12.311Z,100.00
2019-05-07T19:24:18.091Z,100.00
2019-05-07T19:29:24.912Z,100.00
2019-05-07T19:34:32.428Z,100.00
2019-05-07T19:39:37.791Z,100.00
2019-05-07T19:44:43.371Z,100.00
2019-05-07T19:49:49.559Z,100.00
2019-05-07T19:55:00.698Z,100.00
2019-05-07T20:00:02.891Z,100.00
2019-05-07T20:05:08.644Z,100.00
2019-05-07T20:10:17.386Z,100.00
2019-05-07T20:15:25.738Z,100.00
2019-05-07T20:20:33.165Z,100.00
2019-05-07T20:25:39.466Z,100.00
2019-05-07T20:30:45.257Z,100.00
2019-05-07T20:35:52.751Z,100.00
2019-05-07T20:40:58.438Z,100.00
2019-05-07T20:46:04.712Z,100.00
2019-05-07T20:51:12.509Z,100.00
2019-05-07T20:56:19.150Z,100.00
2019-05-07T21:01:24.798Z,100.00
2019-05-07T21:06:36.863Z,100.00
2019-05-07T21:11:43.108Z,100.00
2019-05-07T21:16:51.748Z,100.00
2019-05-07T21:21:56.646Z,100.00
2019-05-07T21:27:02.900Z,100.00
2019-05-07T21:32:08.737Z,100.00
2019-05-07T21:37:16.508Z,100.00
2019-05-07T21:42:23.738Z,100.00
2019-05-07T21:47:32.688Z,100.00
2019-05-07T21:52:39.971Z,100.00
2019-05-07T21:57:57.398Z,100.00
2019-05-07T22:03:06.951Z,100.00
2019-05-07T22:08:12.592Z,100.00
2019-05-07T22:13:18.344Z,100.00
2019-05-07T22:18:24.003Z,100.00
2019-05-07T22:23:29.402Z,100.00
2019-05-07T22:28:35.965Z,100.00
2019-05-07T22:33:52.739Z,100.00
2019-05-07T22:38:58.418Z,100.00
2019-05-07T22:44:04.231Z,100.00
2019-05-07T22:49:12.095Z,100.00
2019-05-07T22:54:17.143Z,100.00
2019-05-07T22:59:22.778Z,100.00
2019-05-07T23:04:29.511Z,100.00
2019-05-07T23:09:36.350Z,100.00
2019-05-07T23:14:41.767Z,100.00
2019-05-07T23:19:47.191Z,100.00
2019-05-07T23:24:52.718Z,100.00
2019-05-07T23:29:58.304Z,100.00
2019-05-07T23:35:06.817Z,100.00
2019-05-07T23:40:18.698Z,100.00
2019-05-07T23:45:24.518Z,100.00
2019-05-07T23:50:32.388Z,100.00
2019-05-07T23:55:37.758Z,100.00
